createdAt,value
2023-03-26T00:00:59.800Z,100351.67
2023-03-26T00:02:01.585Z,100350.78
2023-03-26T00:03:03.401Z,100352.52
2023-03-26T00:04:05.160Z,100349.06
2023-03-26T00:05:07.006Z,100349.92
2023-03-26T00:06:08.952Z,100354.27
2023-03-26T00:07:10.829Z,100353.38
2023-03-26T00:08:12.621Z,100352.53
2023-03-26T00:09:14.569Z,100353.39
2023-03-26T00:10:16.388Z,100347.34
2023-03-26T00:11:18.178Z,100352.55
2023-03-26T00:12:20.037Z,100349.94
2023-03-26T00:13:21.823Z,100356.89
2023-03-26T00:14:23.646Z,100348.20
2023-03-26T00:15:25.443Z,100345.59
2023-03-26T00:16:27.299Z,100349.94
2023-03-26T00:17:29.105Z,100353.39
2023-03-26T00:18:30.899Z,100353.38
2023-03-26T00:19:32.707Z,100343.86
2023-03-26T00:20:34.518Z,100352.51
2023-03-26T00:21:36.334Z,100347.31
2023-03-26T00:22:38.176Z,100343.86
2023-03-26T00:23:39.991Z,100350.78
2023-03-26T00:24:41.794Z,100349.06
2023-03-26T00:25:43.704Z,100349.94
2023-03-26T00:26:45.497Z,100349.06
2023-03-26T00:27:47.357Z,100356.87
2023-03-26T00:28:49.159Z,100350.78
2023-03-26T00:29:50.871Z,100355.12
2023-03-26T00:30:52.740Z,100349.06
2023-03-26T00:31:54.482Z,100348.17
2023-03-26T00:32:56.362Z,100349.06
2023-03-26T00:33:58.129Z,100342.98
2023-03-26T00:34:59.939Z,100347.33
2023-03-26T00:36:04.342Z,100343.87
2023-03-26T00:37:05.360Z,100347.31
2023-03-26T00:38:07.199Z,100346.45
2023-03-26T00:39:08.996Z,100341.25
2023-03-26T00:40:11.206Z,100339.51
2023-03-26T00:41:13.002Z,100339.51
2023-03-26T00:42:14.808Z,100336.05
2023-03-26T00:43:16.651Z,100330.81
2023-03-26T00:44:18.463Z,100335.16
2023-03-26T00:45:20.246Z,100339.51
2023-03-26T00:46:22.211Z,100336.06
2023-03-26T00:47:24.024Z,100324.76
2023-03-26T00:48:34.549Z,100329.95
2023-03-26T00:49:29.451Z,100332.52
2023-03-26T00:50:31.250Z,100337.72
2023-03-26T00:51:33.050Z,100329.06
2023-03-26T00:52:34.853Z,100323.86
2023-03-26T00:53:36.713Z,100327.31
2023-03-26T00:54:38.517Z,100324.70
2023-03-26T00:55:40.313Z,100327.31
2023-03-26T00:56:42.142Z,100322.11
2023-03-26T00:57:43.909Z,100318.66
2023-03-26T00:58:45.753Z,100321.30
2023-03-26T00:59:47.567Z,100324.77
2023-03-26T01:00:49.355Z,100323.05
2023-03-26T01:01:51.210Z,100332.58
2023-03-26T01:02:53.050Z,100327.38
2023-03-26T01:04:06.751Z,100328.27
2023-03-26T01:04:58.539Z,100329.97
2023-03-26T01:06:00.320Z,100333.45
2023-03-26T01:07:02.125Z,100330.84
2023-03-26T01:08:03.919Z,100323.01
2023-03-26T01:09:05.764Z,100327.31
2023-03-26T01:10:07.886Z,100321.25
2023-03-26T01:11:09.674Z,100325.59
2023-03-26T01:12:11.477Z,100321.24
2023-03-26T01:13:13.278Z,100310.84
2023-03-26T01:14:15.145Z,100312.55
2023-03-26T01:15:16.946Z,100310.84
2023-03-26T01:16:19.299Z,100312.55
2023-03-26T01:17:21.049Z,100309.98
2023-03-26T01:18:22.834Z,100310.84
2023-03-26T01:19:24.686Z,100312.59
2023-03-26T01:20:26.505Z,100313.44
2023-03-26T01:21:28.305Z,100310.83
2023-03-26T01:22:30.097Z,100303.89
2023-03-26T01:23:31.898Z,100296.08
2023-03-26T01:24:33.756Z,100307.34
2023-03-26T01:25:35.580Z,100304.75
2023-03-26T01:26:37.364Z,100300.44
2023-03-26T01:27:39.169Z,100305.64
2023-03-26T01:28:40.984Z,100298.70
2023-03-26T01:29:42.842Z,100297.84
2023-03-26T01:30:44.726Z,100296.98
2023-03-26T01:31:46.518Z,100294.34
2023-03-26T01:32:48.370Z,100296.95
2023-03-26T01:33:50.133Z,100290.89
2023-03-26T01:34:51.959Z,100290.89
2023-03-26T01:35:54.045Z,100290.89
2023-03-26T01:36:56.173Z,100287.45
2023-03-26T01:37:57.986Z,100292.64
2023-03-26T01:39:00.650Z,100286.59
2023-03-26T01:40:02.641Z,100292.64
2023-03-26T01:41:04.353Z,100288.30
2023-03-26T01:42:06.142Z,100288.30
2023-03-26T01:43:07.946Z,100292.64
2023-03-26T01:44:09.739Z,100283.10
2023-03-26T01:45:11.596Z,100287.45
2023-03-26T01:46:13.739Z,100277.02
2023-03-26T01:47:15.492Z,100277.02
2023-03-26T01:48:17.291Z,100280.49
2023-03-26T01:49:19.108Z,100283.09
2023-03-26T01:50:20.953Z,100279.62
2023-03-26T01:51:22.740Z,100279.62
2023-03-26T01:52:24.548Z,100269.21
2023-03-26T01:53:26.377Z,100268.31
2023-03-26T01:54:28.253Z,100270.91
2023-03-26T01:55:30.096Z,100260.50
2023-03-26T01:56:31.949Z,100270.04
2023-03-26T01:57:33.794Z,100270.02
2023-03-26T01:58:35.598Z,100265.69
2023-03-26T01:59:37.412Z,100267.42
2023-03-26T02:00:39.257Z,100262.22
2023-03-26T02:01:41.131Z,100258.77
2023-03-26T02:02:43.086Z,100268.27
2023-03-26T02:03:44.924Z,100262.22
2023-03-26T02:04:46.671Z,100263.96
2023-03-26T02:05:48.530Z,100267.41
2023-03-26T02:06:50.340Z,100267.41
2023-03-26T02:07:52.142Z,100271.76
2023-03-26T02:08:53.935Z,100265.67
2023-03-26T02:09:55.728Z,100271.76
2023-03-26T02:10:57.677Z,100270.02
2023-03-26T02:11:59.470Z,100263.08
2023-03-26T02:13:01.281Z,100268.28
2023-03-26T02:14:03.075Z,100262.22
2023-03-26T02:15:04.870Z,100261.37
2023-03-26T02:16:07.046Z,100264.81
2023-03-26T02:17:08.833Z,100258.77
2023-03-26T02:18:10.648Z,100258.77
2023-03-26T02:19:12.430Z,100269.16
2023-03-26T02:20:14.853Z,100270.01
2023-03-26T02:21:16.684Z,100266.55
2023-03-26T02:22:18.489Z,100264.81
2023-03-26T02:23:20.308Z,100269.16
2023-03-26T02:24:22.108Z,100267.41
2023-03-26T02:25:23.896Z,100271.77
2023-03-26T02:26:25.744Z,100265.67
2023-03-26T02:27:27.555Z,100263.08
2023-03-26T02:28:29.363Z,100261.36
2023-03-26T02:29:31.275Z,100259.61
2023-03-26T02:30:33.069Z,100263.96
2023-03-26T02:31:34.969Z,100263.07
2023-03-26T02:32:36.740Z,100265.67
2023-03-26T02:33:38.515Z,100259.61
2023-03-26T02:34:40.328Z,100267.41
2023-03-26T02:35:42.213Z,100262.21
2023-03-26T02:36:44.093Z,100266.56
2023-03-26T02:37:45.920Z,100265.67
2023-03-26T02:38:47.721Z,100265.66
2023-03-26T02:39:49.524Z,100266.55
2023-03-26T02:40:51.352Z,100274.35
2023-03-26T02:41:53.199Z,100274.35
2023-03-26T02:42:54.997Z,100274.34
2023-03-26T02:43:56.806Z,100276.94
2023-03-26T02:44:58.604Z,100274.33
2023-03-26T02:46:00.504Z,100276.94
2023-03-26T02:47:02.369Z,100278.66
2023-03-26T02:48:04.187Z,100271.74
2023-03-26T02:49:05.970Z,100272.61
2023-03-26T02:50:08.076Z,100268.26
2023-03-26T02:51:09.881Z,100263.95
2023-03-26T02:52:11.732Z,100271.74
2023-03-26T02:53:13.528Z,100272.59
2023-03-26T02:54:15.340Z,100274.33
2023-03-26T02:55:17.140Z,100280.38
2023-03-26T02:56:18.937Z,100270.84
2023-03-26T02:57:20.688Z,100274.34
2023-03-26T02:58:22.486Z,100276.05
2023-03-26T02:59:24.305Z,100277.80
2023-03-26T03:00:26.104Z,100272.59
2023-03-26T03:01:27.933Z,100276.05
2023-03-26T03:02:29.895Z,100281.23
2023-03-26T03:03:31.838Z,100276.05
2023-03-26T03:04:33.588Z,100273.44
2023-03-26T03:05:35.397Z,100281.23
2023-03-26T03:06:37.210Z,100278.63
2023-03-26T03:07:39.071Z,100280.36
2023-03-26T03:08:40.864Z,100282.06
2023-03-26T03:09:42.681Z,100276.01
2023-03-26T03:10:44.473Z,100273.41
2023-03-26T03:11:46.286Z,100275.16
2023-03-26T03:12:48.099Z,100279.47
2023-03-26T03:13:49.896Z,100273.41
2023-03-26T03:14:51.698Z,100272.55
2023-03-26T03:15:53.725Z,100270.80
2023-03-26T03:16:55.731Z,100280.33
2023-03-26T03:17:57.559Z,100269.94
2023-03-26T03:18:59.315Z,100273.38
2023-03-26T03:20:01.144Z,100265.58
2023-03-26T03:21:03.017Z,100268.17
2023-03-26T03:22:04.839Z,100262.11
2023-03-26T03:23:06.725Z,100262.95
2023-03-26T03:24:08.553Z,100265.55
2023-03-26T03:25:10.356Z,100262.95
2023-03-26T03:26:12.144Z,100259.50
2023-03-26T03:27:13.948Z,100264.69
2023-03-26T03:28:15.787Z,100263.80
2023-03-26T03:29:17.595Z,100257.73
2023-03-26T03:30:19.415Z,100258.59
2023-03-26T03:31:21.228Z,100262.92
2023-03-26T03:32:23.072Z,100259.46
2023-03-26T03:33:24.967Z,100262.92
2023-03-26T03:34:26.777Z,100268.98
2023-03-26T03:35:28.577Z,100259.48
2023-03-26T03:36:30.459Z,100268.13
2023-03-26T03:37:32.308Z,100266.38
2023-03-26T03:38:34.154Z,100262.07
2023-03-26T03:39:35.853Z,100266.38
2023-03-26T03:40:37.685Z,100262.94
2023-03-26T03:41:39.476Z,100261.20
2023-03-26T03:42:41.298Z,100269.88
2023-03-26T03:43:43.156Z,100273.34
2023-03-26T03:44:44.952Z,100269.00
2023-03-26T03:45:46.818Z,100262.95
2023-03-26T03:46:48.771Z,100266.40
2023-03-26T03:47:50.592Z,100262.09
2023-03-26T03:48:52.519Z,100275.09
2023-03-26T03:49:54.318Z,100271.62
2023-03-26T03:50:56.112Z,100275.11
2023-03-26T03:51:57.921Z,100271.63
2023-03-26T03:52:59.740Z,100275.98
2023-03-26T03:54:01.582Z,100273.38
2023-03-26T03:55:03.382Z,100270.80
2023-03-26T03:56:05.493Z,100275.14
2023-03-26T03:57:07.393Z,100276.00
2023-03-26T03:58:09.397Z,100265.61
2023-03-26T03:59:11.235Z,100274.26
2023-03-26T04:00:13.368Z,100265.61
2023-03-26T04:01:15.166Z,100266.46
2023-03-26T04:02:17.027Z,100269.95
2023-03-26T04:03:19.067Z,100264.75
2023-03-26T04:04:22.591Z,100258.66
2023-03-26T04:05:24.332Z,100262.16
2023-03-26T04:06:26.137Z,100258.66
2023-03-26T04:07:27.949Z,100264.75
2023-03-26T04:08:29.761Z,100256.06
2023-03-26T04:09:31.597Z,100262.16
2023-03-26T04:10:33.426Z,100256.08
2023-03-26T04:11:35.213Z,100251.76
2023-03-26T04:12:37.021Z,100258.66
2023-03-26T04:13:38.835Z,100262.16
2023-03-26T04:14:40.676Z,100263.02
2023-03-26T04:15:42.521Z,100257.81
2023-03-26T04:16:44.286Z,100255.20
2023-03-26T04:17:46.133Z,100258.66
2023-03-26T04:18:47.909Z,100256.95
2023-03-26T04:19:49.763Z,100263.86
2023-03-26T04:20:51.585Z,100261.25
2023-03-26T04:21:53.377Z,100255.20
2023-03-26T04:22:55.190Z,100255.19
2023-03-26T04:23:57.016Z,100261.23
2023-03-26T04:24:58.844Z,100251.73
2023-03-26T04:26:00.642Z,100250.84
2023-03-26T04:27:02.446Z,100253.44
2023-03-26T04:28:04.264Z,100243.02
2023-03-26T04:29:06.056Z,100240.42
2023-03-26T04:30:08.322Z,100245.61
2023-03-26T04:31:10.196Z,100250.80
2023-03-26T04:32:11.937Z,100245.61
2023-03-26T04:33:13.741Z,100241.31
2023-03-26T04:34:15.548Z,100241.31
2023-03-26T04:35:17.354Z,100241.31
2023-03-26T04:36:19.179Z,100238.70
2023-03-26T04:37:20.972Z,100240.42
2023-03-26T04:38:22.769Z,100237.81
2023-03-26T04:39:24.583Z,100227.41
2023-03-26T04:40:26.439Z,100223.10
2023-03-26T04:41:28.240Z,100221.35
2023-03-26T04:42:30.039Z,100225.70
2023-03-26T04:43:31.838Z,100232.60
2023-03-26T04:44:33.654Z,100224.81
2023-03-26T04:45:35.501Z,100224.81
2023-03-26T04:46:37.343Z,100216.16
2023-03-26T04:47:39.186Z,100218.75
2023-03-26T04:48:41.031Z,100224.81
2023-03-26T04:49:42.820Z,100221.34
2023-03-26T04:50:44.679Z,100220.48
2023-03-26T04:51:46.488Z,100225.68
2023-03-26T04:52:48.370Z,100218.73
2023-03-26T04:53:50.192Z,100223.05
2023-03-26T04:54:52.001Z,100219.59
2023-03-26T04:55:53.964Z,100223.95
2023-03-26T04:56:56.010Z,100222.20
2023-03-26T04:57:57.791Z,100232.60
2023-03-26T04:58:59.549Z,100223.09
2023-03-26T05:00:01.342Z,100223.10
2023-03-26T05:01:10.441Z,100228.30
2023-03-26T05:02:06.811Z,100231.75
2023-03-26T05:03:08.664Z,100238.69
2023-03-26T05:04:10.449Z,100239.55
2023-03-26T05:05:12.220Z,100236.94
2023-03-26T05:06:14.092Z,100248.20
2023-03-26T05:07:15.864Z,100252.53
2023-03-26T05:08:17.671Z,100252.55
2023-03-26T05:09:19.494Z,100248.20
2023-03-26T05:10:21.310Z,100255.16
2023-03-26T05:11:23.129Z,100251.70
2023-03-26T05:12:24.927Z,100252.58
2023-03-26T05:13:26.730Z,100256.94
2023-03-26T05:14:28.557Z,100244.80
2023-03-26T05:15:30.350Z,100243.95
2023-03-26T05:16:32.253Z,100243.06
2023-03-26T05:17:34.078Z,100237.88
2023-03-26T05:18:35.927Z,100239.63
2023-03-26T05:19:37.717Z,100233.58
2023-03-26T05:20:39.506Z,100234.43
2023-03-26T05:21:41.349Z,100238.79
2023-03-26T05:22:43.153Z,100233.59
2023-03-26T05:23:44.955Z,100238.79
2023-03-26T05:24:46.751Z,100236.20
2023-03-26T05:25:48.549Z,100234.45
2023-03-26T05:26:50.506Z,100241.39
2023-03-26T05:27:52.308Z,100231.00
2023-03-26T05:28:54.104Z,100231.00
2023-03-26T05:29:55.899Z,100233.60
2023-03-26T05:30:57.701Z,100236.20
2023-03-26T05:31:59.448Z,100240.56
2023-03-26T05:33:01.318Z,100235.34
2023-03-26T05:34:03.078Z,100235.34
2023-03-26T05:35:04.870Z,100244.86
2023-03-26T05:36:07.096Z,100243.16
2023-03-26T05:37:08.918Z,100244.02
2023-03-26T05:38:10.726Z,100240.56
2023-03-26T05:39:12.533Z,100242.27
2023-03-26T05:40:14.339Z,100239.67
2023-03-26T05:41:16.134Z,100237.97
2023-03-26T05:42:17.994Z,100237.97
2023-03-26T05:43:19.796Z,100236.23
2023-03-26T05:44:21.598Z,100236.24
2023-03-26T05:45:23.423Z,100237.09
2023-03-26T05:46:25.230Z,100234.50
2023-03-26T05:47:27.083Z,100240.58
2023-03-26T05:48:28.861Z,100232.78
2023-03-26T05:49:30.677Z,100231.05
2023-03-26T05:50:32.501Z,100237.11
2023-03-26T05:51:34.303Z,100238.00
2023-03-26T05:52:36.146Z,100234.52
2023-03-26T05:53:37.950Z,100231.92
2023-03-26T05:54:39.753Z,100238.01
2023-03-26T05:55:41.668Z,100235.42
2023-03-26T05:56:43.475Z,100235.42
2023-03-26T05:57:45.306Z,100235.42
2023-03-26T05:58:47.119Z,100225.88
2023-03-26T05:59:48.921Z,100231.08
2023-03-26T06:00:50.718Z,100234.53
2023-03-26T06:01:52.524Z,100233.68
2023-03-26T06:02:56.910Z,100227.63
2023-03-26T06:03:58.021Z,100231.08
2023-03-26T06:04:59.873Z,100235.42
2023-03-26T06:06:01.665Z,100237.14
2023-03-26T06:07:03.471Z,100238.03
2023-03-26T06:08:05.315Z,100235.44
2023-03-26T06:09:07.123Z,100238.05
2023-03-26T06:10:09.034Z,100241.55
2023-03-26T06:11:10.834Z,100238.08
2023-03-26T06:12:12.632Z,100241.50
2023-03-26T06:13:14.498Z,100236.34
2023-03-26T06:14:16.305Z,100230.28
2023-03-26T06:15:18.117Z,100231.99
2023-03-26T06:16:26.375Z,100235.48
2023-03-26T06:17:23.526Z,100236.35
2023-03-26T06:18:25.365Z,100240.70
2023-03-26T06:19:27.168Z,100232.91
2023-03-26T06:20:28.974Z,100238.11
2023-03-26T06:21:30.762Z,100234.66
2023-03-26T06:22:32.567Z,100234.66
2023-03-26T06:23:34.414Z,100234.66
2023-03-26T06:24:36.237Z,100234.66
2023-03-26T06:25:38.034Z,100233.78
2023-03-26T06:26:39.834Z,100241.58
2023-03-26T06:27:41.624Z,100238.13
2023-03-26T06:28:43.498Z,100245.08
2023-03-26T06:29:45.292Z,100235.53
2023-03-26T06:30:47.085Z,100239.03
2023-03-26T06:31:48.914Z,100241.64
2023-03-26T06:32:50.779Z,100239.05
2023-03-26T06:33:52.642Z,100242.50
2023-03-26T06:34:54.439Z,100236.44
2023-03-26T06:35:56.258Z,100242.50
2023-03-26T06:36:58.031Z,100239.90
2023-03-26T06:37:59.856Z,100237.30
2023-03-26T06:39:01.695Z,100231.23
2023-03-26T06:40:05.299Z,100238.16
2023-03-26T06:41:06.992Z,100231.24
2023-03-26T06:42:08.798Z,100228.64
2023-03-26T06:43:11.094Z,100242.51
2023-03-26T06:44:13.046Z,100247.72
2023-03-26T06:45:14.914Z,100239.91
2023-03-26T06:46:16.785Z,100237.31
2023-03-26T06:47:18.599Z,100245.13
2023-03-26T06:48:20.413Z,100232.11
2023-03-26T06:49:22.263Z,100234.72
2023-03-26T06:50:24.442Z,100237.31
2023-03-26T06:51:26.274Z,100236.45
2023-03-26T06:52:28.096Z,100228.66
2023-03-26T06:53:29.896Z,100226.05
2023-03-26T06:54:31.740Z,100235.57
2023-03-26T06:55:33.529Z,100226.91
2023-03-26T06:56:35.366Z,100226.91
2023-03-26T06:57:37.148Z,100230.37
2023-03-26T06:58:38.950Z,100226.91
2023-03-26T06:59:40.800Z,100228.66
2023-03-26T07:00:42.651Z,100229.52
2023-03-26T07:01:46.445Z,100226.06
2023-03-26T07:02:48.120Z,100230.39
2023-03-26T07:03:50.093Z,100226.08
2023-03-26T07:04:51.918Z,100235.59
2023-03-26T07:05:53.738Z,100226.92
2023-03-26T07:06:55.556Z,100229.53
2023-03-26T07:07:57.397Z,100220.87
2023-03-26T07:08:59.245Z,100221.73
2023-03-26T07:10:01.146Z,100226.08
2023-03-26T07:11:02.952Z,100222.63
2023-03-26T07:12:04.662Z,100219.13
2023-03-26T07:13:06.469Z,100220.88
2023-03-26T07:14:08.307Z,100226.09
2023-03-26T07:15:10.394Z,100215.68
2023-03-26T07:16:12.650Z,100219.14
2023-03-26T07:17:14.489Z,100218.28
2023-03-26T07:18:16.312Z,100224.34
2023-03-26T07:19:18.191Z,100222.63
2023-03-26T07:20:19.992Z,100222.63
2023-03-26T07:21:21.851Z,100218.28
2023-03-26T07:22:23.687Z,100222.63
2023-03-26T07:23:25.504Z,100226.09
2023-03-26T07:24:27.320Z,100226.09
2023-03-26T07:25:29.227Z,100220.03
2023-03-26T07:26:31.140Z,100222.64
2023-03-26T07:27:33.013Z,100226.10
2023-03-26T07:28:34.912Z,100219.14
2023-03-26T07:29:36.733Z,100225.25
2023-03-26T07:30:38.893Z,100232.20
2023-03-26T07:31:40.802Z,100228.70
2023-03-26T07:32:42.716Z,100227.00
2023-03-26T07:33:44.753Z,100226.11
2023-03-26T07:34:46.607Z,100223.50
2023-03-26T07:35:48.461Z,100225.25
2023-03-26T07:36:50.455Z,100227.86
2023-03-26T07:37:52.414Z,100220.05
2023-03-26T07:38:54.234Z,100224.39
2023-03-26T07:39:56.257Z,100222.65
2023-03-26T07:40:59.212Z,100227.00
2023-03-26T07:42:01.091Z,100222.65
2023-03-26T07:43:02.888Z,100219.19
2023-03-26T07:44:04.712Z,100215.70
2023-03-26T07:45:06.576Z,100222.65
2023-03-26T07:46:08.730Z,100214.84
2023-03-26T07:47:10.497Z,100214.84
2023-03-26T07:48:12.288Z,100226.11
2023-03-26T07:49:14.103Z,100217.44
2023-03-26T07:50:18.194Z,100222.65
2023-03-26T07:51:19.645Z,100224.39
2023-03-26T07:52:21.440Z,100223.50
2023-03-26T07:53:23.456Z,100213.09
2023-03-26T07:54:25.254Z,100220.91
2023-03-26T07:55:27.043Z,100211.38
2023-03-26T07:56:28.928Z,100213.98
2023-03-26T07:57:30.743Z,100225.25
2023-03-26T07:58:32.612Z,100214.84
2023-03-26T07:59:34.444Z,100215.70
2023-03-26T08:00:36.353Z,100213.09
2023-03-26T08:01:38.252Z,100216.58
2023-03-26T08:02:40.124Z,100212.23
2023-03-26T08:03:42.018Z,100213.13
2023-03-26T08:04:43.949Z,100213.98
2023-03-26T08:05:45.977Z,100214.84
2023-03-26T08:06:47.803Z,100211.38
2023-03-26T08:07:49.604Z,100216.58
2023-03-26T08:08:51.404Z,100207.02
2023-03-26T08:09:53.211Z,100215.72
2023-03-26T08:10:55.120Z,100214.83
2023-03-26T08:11:57.070Z,100211.38
2023-03-26T08:12:58.861Z,100203.56
2023-03-26T08:14:00.671Z,100210.52
2023-03-26T08:15:02.498Z,100204.41
2023-03-26T08:16:04.415Z,100207.02
2023-03-26T08:17:06.561Z,100204.41
2023-03-26T08:18:08.428Z,100208.77
2023-03-26T08:19:10.269Z,100200.95
2023-03-26T08:20:12.183Z,100200.95
2023-03-26T08:21:13.981Z,100206.16
2023-03-26T08:22:15.829Z,100206.16
2023-03-26T08:23:17.636Z,100204.41
2023-03-26T08:24:19.420Z,100199.20
2023-03-26T08:25:21.237Z,100200.95
2023-03-26T08:26:23.039Z,100198.35
2023-03-26T08:27:24.912Z,100198.35
2023-03-26T08:28:26.760Z,100192.29
2023-03-26T08:29:28.562Z,100195.75
2023-03-26T08:30:30.350Z,100195.75
2023-03-26T08:31:32.261Z,100202.70
2023-03-26T08:32:34.185Z,100198.36
2023-03-26T08:33:38.299Z,100197.50
2023-03-26T08:34:39.676Z,100197.50
2023-03-26T08:35:41.526Z,100206.16
2023-03-26T08:36:43.283Z,100199.21
2023-03-26T08:37:45.174Z,100195.75
2023-03-26T08:38:47.027Z,100197.50
2023-03-26T08:39:48.790Z,100197.50
2023-03-26T08:40:50.593Z,100195.75
2023-03-26T08:41:52.411Z,100193.14
2023-03-26T08:42:54.308Z,100194.00
2023-03-26T08:43:56.127Z,100194.89
2023-03-26T08:44:57.932Z,100196.61
2023-03-26T08:45:59.719Z,100196.61
2023-03-26T08:47:01.522Z,100195.75
2023-03-26T08:48:03.505Z,100190.55
2023-03-26T08:49:05.344Z,100192.29
2023-03-26T08:50:07.461Z,100191.40
2023-03-26T08:51:09.255Z,100194.89
2023-03-26T08:52:11.067Z,100188.80
2023-03-26T08:53:12.906Z,100196.60
2023-03-26T08:54:14.730Z,100189.68
2023-03-26T08:55:16.510Z,100188.79
2023-03-26T08:56:18.306Z,100184.47
2023-03-26T08:57:20.220Z,100183.58
2023-03-26T08:58:22.064Z,100185.32
2023-03-26T08:59:23.922Z,100183.58
2023-03-26T09:00:25.721Z,100187.92
2023-03-26T09:01:27.538Z,100183.56
2023-03-26T09:02:29.336Z,100192.27
2023-03-26T09:03:31.215Z,100178.36
2023-03-26T09:04:33.076Z,100186.17
2023-03-26T09:05:34.878Z,100180.96
2023-03-26T09:06:36.675Z,100187.06
2023-03-26T09:07:38.480Z,100186.17
2023-03-26T09:08:53.647Z,100187.05
2023-03-26T09:09:43.935Z,100185.30
2023-03-26T09:10:45.733Z,100181.84
2023-03-26T09:11:47.550Z,100180.09
2023-03-26T09:12:49.338Z,100180.09
2023-03-26T09:13:51.186Z,100185.30
2023-03-26T09:14:52.981Z,100183.58
2023-03-26T09:15:54.896Z,100179.22
2023-03-26T09:16:56.743Z,100174.86
2023-03-26T09:17:58.593Z,100180.08
2023-03-26T09:19:00.415Z,100182.69
2023-03-26T09:20:02.236Z,100182.69
2023-03-26T09:21:04.055Z,100181.83
2023-03-26T09:22:05.863Z,100180.98
2023-03-26T09:23:07.682Z,100181.83
2023-03-26T09:24:09.549Z,100188.78
2023-03-26T09:25:11.391Z,100170.54
2023-03-26T09:26:13.212Z,100171.39
2023-03-26T09:27:15.024Z,100172.27
2023-03-26T09:28:16.833Z,100168.81
2023-03-26T09:29:18.756Z,100170.55
2023-03-26T09:30:20.599Z,100172.27
2023-03-26T09:31:22.498Z,100172.27
2023-03-26T09:32:24.309Z,100168.80
2023-03-26T09:33:26.267Z,100172.26
2023-03-26T09:34:28.136Z,100167.94
2023-03-26T09:35:30.009Z,100173.14
2023-03-26T09:36:31.799Z,100168.78
2023-03-26T09:37:33.654Z,100160.10
2023-03-26T09:38:35.479Z,100162.70
2023-03-26T09:39:37.342Z,100163.55
2023-03-26T09:40:39.157Z,100162.69
2023-03-26T09:41:40.985Z,100156.62
2023-03-26T09:42:42.815Z,100158.33
2023-03-26T09:43:44.641Z,100156.61
2023-03-26T09:44:46.646Z,100154.00
2023-03-26T09:45:48.485Z,100157.46
2023-03-26T09:46:50.342Z,100147.03
2023-03-26T09:47:52.213Z,100154.00
2023-03-26T09:48:54.101Z,100160.06
2023-03-26T09:49:56.255Z,100154.84
2023-03-26T09:50:58.378Z,100159.19
2023-03-26T09:52:00.596Z,100159.19
2023-03-26T09:53:02.419Z,100156.58
2023-03-26T09:54:04.242Z,100157.44
2023-03-26T09:55:06.113Z,100157.44
2023-03-26T09:56:07.948Z,100153.08
2023-03-26T09:57:09.840Z,100153.97
2023-03-26T09:58:11.667Z,100153.08
2023-03-26T09:59:13.498Z,100155.69
2023-03-26T10:00:15.891Z,100152.23
2023-03-26T10:01:17.724Z,100151.37
2023-03-26T10:02:19.553Z,100151.37
2023-03-26T10:03:21.422Z,100146.16
2023-03-26T10:04:23.185Z,100141.80
2023-03-26T10:05:25.023Z,100150.47
2023-03-26T10:06:26.844Z,100140.05
2023-03-26T10:07:28.661Z,100144.40
2023-03-26T10:08:32.230Z,100146.14
2023-03-26T10:09:34.103Z,100147.00
2023-03-26T10:10:35.973Z,100144.39
2023-03-26T10:11:37.806Z,100146.13
2023-03-26T10:12:39.639Z,100142.66
2023-03-26T10:13:41.408Z,100141.76
2023-03-26T10:14:43.200Z,100141.76
2023-03-26T10:15:45.073Z,100143.50
2023-03-26T10:16:47.046Z,100143.50
2023-03-26T10:17:48.926Z,100146.11
2023-03-26T10:18:50.690Z,100135.69
2023-03-26T10:19:52.508Z,100141.75
2023-03-26T10:20:54.475Z,100142.64
2023-03-26T10:21:56.459Z,100137.44
2023-03-26T10:22:58.261Z,100144.36
2023-03-26T10:24:00.117Z,100143.50
2023-03-26T10:25:01.920Z,100140.04
2023-03-26T10:26:03.796Z,100145.25
2023-03-26T10:27:08.456Z,100134.83
2023-03-26T10:28:09.233Z,100147.86
2023-03-26T10:29:11.070Z,100142.66
2023-03-26T10:30:12.990Z,100144.38
2023-03-26T10:31:14.892Z,100144.38
2023-03-26T10:32:16.656Z,100140.06
2023-03-26T10:33:18.408Z,100133.09
2023-03-26T10:34:29.322Z,100134.84
2023-03-26T10:35:23.864Z,100139.16
2023-03-26T10:36:25.713Z,100144.36
2023-03-26T10:37:27.520Z,100138.28
2023-03-26T10:38:29.341Z,100139.15
2023-03-26T10:39:36.625Z,100140.91
2023-03-26T10:40:34.817Z,100140.91
2023-03-26T10:41:36.686Z,100134.83
2023-03-26T10:42:38.509Z,100131.33
2023-03-26T10:43:40.307Z,100134.83
2023-03-26T10:44:42.133Z,100127.01
2023-03-26T10:45:43.981Z,100130.47
2023-03-26T10:46:45.842Z,100127.88
2023-03-26T10:47:47.693Z,100120.05
2023-03-26T10:48:49.472Z,100127.88
2023-03-26T10:49:51.295Z,100123.53
2023-03-26T10:50:53.372Z,100123.54
2023-03-26T10:51:55.355Z,100127.89
2023-03-26T10:52:57.181Z,100127.03
2023-03-26T10:53:58.992Z,100129.64
2023-03-26T10:55:00.805Z,100128.75
2023-03-26T10:56:02.613Z,100121.81
2023-03-26T10:57:04.547Z,100127.03
2023-03-26T10:58:06.421Z,100122.67
2023-03-26T10:59:08.234Z,100121.81
2023-03-26T11:00:10.123Z,100127.03
2023-03-26T11:01:11.967Z,100121.81
2023-03-26T11:02:13.795Z,100118.31
2023-03-26T11:03:15.610Z,100123.53
2023-03-26T11:04:17.482Z,100116.59
2023-03-26T11:05:19.307Z,100120.06
2023-03-26T11:06:21.203Z,100118.32
2023-03-26T11:07:23.067Z,100123.54
2023-03-26T11:08:31.675Z,100113.12
2023-03-26T11:09:28.479Z,100113.12
2023-03-26T11:10:30.284Z,100115.73
2023-03-26T11:11:32.108Z,100115.73
2023-03-26T11:12:33.935Z,100118.34
2023-03-26T11:13:35.804Z,100112.28
2023-03-26T11:14:37.600Z,100111.39
2023-03-26T11:15:39.469Z,100119.22
2023-03-26T11:16:41.226Z,100114.90
2023-03-26T11:17:43.108Z,100113.16
2023-03-26T11:18:44.898Z,100115.77
2023-03-26T11:19:46.803Z,100120.14
2023-03-26T11:20:48.594Z,100113.18
2023-03-26T11:21:50.407Z,100116.65
2023-03-26T11:22:52.255Z,100116.65
2023-03-26T11:24:04.676Z,100120.15
2023-03-26T11:24:57.712Z,100112.33
2023-03-26T11:25:59.531Z,100111.44
2023-03-26T11:27:15.543Z,100110.59
2023-03-26T11:28:05.002Z,100112.34
2023-03-26T11:29:30.956Z,100106.24
2023-03-26T11:30:10.801Z,100106.25
2023-03-26T11:31:12.737Z,100102.79
2023-03-26T11:32:14.489Z,100106.25
2023-03-26T11:33:16.428Z,100105.40
2023-03-26T11:34:18.758Z,100107.14
2023-03-26T11:35:42.460Z,100108.00
2023-03-26T11:36:26.002Z,100105.39
2023-03-26T11:37:27.860Z,100098.43
2023-03-26T11:38:29.716Z,100099.32
2023-03-26T11:39:31.581Z,100095.83
2023-03-26T11:40:33.355Z,100095.83
2023-03-26T11:41:35.138Z,100094.11
2023-03-26T11:42:36.931Z,100098.43
2023-03-26T11:43:38.769Z,100093.22
2023-03-26T11:44:40.568Z,100088.91
2023-03-26T11:45:42.350Z,100097.58
2023-03-26T11:46:44.279Z,100093.23